sensor_id;sensor_type;location;lat;lon;timestamp;P1;durP1;ratioP1;P2;durP2;ratioP2
48629;SDS011;34426;52.180;4.462;2023-07-13T00:01:59;10.75;;;2.22;;
48629;SDS011;34426;52.180;4.462;2023-07-13T00:04:24;10.60;;;1.90;;
48629;SDS011;34426;52.180;4.462;2023-07-13T00:06:54;11.02;;;1.77;;
48629;SDS011;34426;52.180;4.462;2023-07-13T00:09:20;13.40;;;1.92;;
48629;SDS011;34426;52.180;4.462;2023-07-13T00:11:50;12.15;;;2.67;;
48629;SDS011;34426;52.180;4.462;2023-07-13T00:14:17;7.35;;;1.77;;
48629;SDS011;34426;52.180;4.462;2023-07-13T00:16:43;11.55;;;2.47;;
48629;SDS011;34426;52.180;4.462;2023-07-13T00:19:09;14.15;;;2.50;;
48629;SDS011;34426;52.180;4.462;2023-07-13T00:21:35;11.13;;;1.98;;
48629;SDS011;34426;52.180;4.462;2023-07-13T00:24:02;12.82;;;1.80;;
48629;SDS011;34426;52.180;4.462;2023-07-13T00:26:29;12.98;;;2.05;;
48629;SDS011;34426;52.180;4.462;2023-07-13T00:28:54;13.88;;;2.25;;
48629;SDS011;34426;52.180;4.462;2023-07-13T00:31:20;14.75;;;2.65;;
48629;SDS011;34426;52.180;4.462;2023-07-13T00:33:46;12.98;;;2.47;;
48629;SDS011;34426;52.180;4.462;2023-07-13T00:36:12;16.95;;;2.70;;
48629;SDS011;34426;52.180;4.462;2023-07-13T00:38:44;16.83;;;2.40;;
48629;SDS011;34426;52.180;4.462;2023-07-13T00:41:12;14.52;;;2.25;;
48629;SDS011;34426;52.180;4.462;2023-07-13T00:43:38;11.05;;;2.10;;
48629;SDS011;34426;52.180;4.462;2023-07-13T00:46:14;9.57;;;2.03;;
48629;SDS011;34426;52.180;4.462;2023-07-13T00:48:42;15.55;;;2.25;;
48629;SDS011;34426;52.180;4.462;2023-07-13T00:51:11;13.75;;;2.70;;
48629;SDS011;34426;52.180;4.462;2023-07-13T00:53:38;8.00;;;1.70;;
48629;SDS011;34426;52.180;4.462;2023-07-13T00:56:05;14.23;;;2.10;;
48629;SDS011;34426;52.180;4.462;2023-07-13T00:58:33;11.13;;;1.65;;
48629;SDS011;34426;52.180;4.462;2023-07-13T01:00:59;11.55;;;1.75;;
48629;SDS011;34426;52.180;4.462;2023-07-13T01:03:27;8.40;;;1.75;;
48629;SDS011;34426;52.180;4.462;2023-07-13T01:05:53;13.77;;;2.00;;
48629;SDS011;34426;52.180;4.462;2023-07-13T01:08:19;8.70;;;1.70;;
48629;SDS011;34426;52.180;4.462;2023-07-13T01:10:52;10.57;;;1.88;;
48629;SDS011;34426;52.180;4.462;2023-07-13T01:13:19;8.20;;;1.85;;
48629;SDS011;34426;52.180;4.462;2023-07-13T01:15:47;7.45;;;1.65;;
48629;SDS011;34426;52.180;4.462;2023-07-13T01:18:14;11.88;;;1.52;;
48629;SDS011;34426;52.180;4.462;2023-07-13T01:20:47;12.48;;;2.55;;
48629;SDS011;34426;52.180;4.462;2023-07-13T01:23:18;8.75;;;1.48;;
48629;SDS011;34426;52.180;4.462;2023-07-13T01:25:45;7.43;;;1.23;;
48629;SDS011;34426;52.180;4.462;2023-07-13T01:28:11;10.30;;;1.60;;
48629;SDS011;34426;52.180;4.462;2023-07-13T01:30:37;12.60;;;1.85;;
48629;SDS011;34426;52.180;4.462;2023-07-13T01:33:04;15.75;;;1.75;;
48629;SDS011;34426;52.180;4.462;2023-07-13T01:35:30;7.68;;;1.27;;
48629;SDS011;34426;52.180;4.462;2023-07-13T01:37:58;9.75;;;1.60;;
48629;SDS011;34426;52.180;4.462;2023-07-13T01:40:24;8.07;;;2.15;;
48629;SDS011;34426;52.180;4.462;2023-07-13T01:42:50;11.88;;;1.40;;
48629;SDS011;34426;52.180;4.462;2023-07-13T01:45:16;12.65;;;1.58;;
48629;SDS011;34426;52.180;4.462;2023-07-13T01:47:42;11.98;;;2.60;;
48629;SDS011;34426;52.180;4.462;2023-07-13T01:50:08;10.00;;;1.50;;
48629;SDS011;34426;52.180;4.462;2023-07-13T01:52:35;11.95;;;1.60;;
48629;SDS011;34426;52.180;4.462;2023-07-13T01:55:02;8.35;;;1.50;;
48629;SDS011;34426;52.180;4.462;2023-07-13T01:57:28;11.70;;;1.50;;
48629;SDS011;34426;52.180;4.462;2023-07-13T01:59:54;8.32;;;1.23;;
48629;SDS011;34426;52.180;4.462;2023-07-13T02:02:20;14.77;;;2.35;;
48629;SDS011;34426;52.180;4.462;2023-07-13T02:04:46;11.55;;;1.15;;
48629;SDS011;34426;52.180;4.462;2023-07-13T02:07:15;8.10;;;2.03;;
48629;SDS011;34426;52.180;4.462;2023-07-13T02:09:44;14.63;;;1.70;;
48629;SDS011;34426;52.180;4.462;2023-07-13T02:12:11;7.80;;;1.58;;
48629;SDS011;34426;52.180;4.462;2023-07-13T02:14:37;7.28;;;1.30;;
48629;SDS011;34426;52.180;4.462;2023-07-13T02:17:03;13.70;;;2.25;;
48629;SDS011;34426;52.180;4.462;2023-07-13T02:19:29;12.15;;;1.88;;
48629;SDS011;34426;52.180;4.462;2023-07-13T02:21:55;6.68;;;1.52;;
48629;SDS011;34426;52.180;4.462;2023-07-13T02:24:21;8.27;;;1.55;;
48629;SDS011;34426;52.180;4.462;2023-07-13T02:26:47;12.77;;;1.63;;
48629;SDS011;34426;52.180;4.462;2023-07-13T02:29:15;8.40;;;2.05;;
48629;SDS011;34426;52.180;4.462;2023-07-13T02:31:40;9.45;;;1.50;;
48629;SDS011;34426;52.180;4.462;2023-07-13T02:34:06;15.95;;;2.03;;
48629;SDS011;34426;52.180;4.462;2023-07-13T02:36:34;12.75;;;1.85;;
48629;SDS011;34426;52.180;4.462;2023-07-13T02:39:01;12.20;;;1.90;;
48629;SDS011;34426;52.180;4.462;2023-07-13T02:41:28;8.55;;;2.28;;
48629;SDS011;34426;52.180;4.462;2023-07-13T02:43:54;16.08;;;3.55;;
48629;SDS011;34426;52.180;4.462;2023-07-13T02:46:21;5.43;;;1.63;;
48629;SDS011;34426;52.180;4.462;2023-07-13T02:48:47;16.38;;;2.13;;
48629;SDS011;34426;52.180;4.462;2023-07-13T02:51:13;18.52;;;2.35;;
48629;SDS011;34426;52.180;4.462;2023-07-13T02:53:38;12.30;;;1.88;;
48629;SDS011;34426;52.180;4.462;2023-07-13T02:56:04;13.43;;;2.53;;
48629;SDS011;34426;52.180;4.462;2023-07-13T02:58:36;15.32;;;2.00;;
48629;SDS011;34426;52.180;4.462;2023-07-13T03:01:07;19.58;;;3.10;;
48629;SDS011;34426;52.180;4.462;2023-07-13T03:03:35;13.15;;;2.22;;
48629;SDS011;34426;52.180;4.462;2023-07-13T03:06:02;13.77;;;2.75;;
48629;SDS011;34426;52.180;4.462;2023-07-13T03:08:35;13.20;;;2.47;;
48629;SDS011;34426;52.180;4.462;2023-07-13T03:11:01;11.80;;;2.45;;
48629;SDS011;34426;52.180;4.462;2023-07-13T03:13:27;14.50;;;3.38;;
48629;SDS011;34426;52.180;4.462;2023-07-13T03:15:53;18.88;;;3.85;;
48629;SDS011;34426;52.180;4.462;2023-07-13T03:18:19;17.17;;;3.55;;
48629;SDS011;34426;52.180;4.462;2023-07-13T03:20:46;20.70;;;3.40;;
48629;SDS011;34426;52.180;4.462;2023-07-13T03:23:15;23.92;;;3.88;;
48629;SDS011;34426;52.180;4.462;2023-07-13T03:25:40;18.50;;;4.28;;
48629;SDS011;34426;52.180;4.462;2023-07-13T03:28:07;21.38;;;3.85;;
48629;SDS011;34426;52.180;4.462;2023-07-13T03:30:34;22.27;;;4.25;;
48629;SDS011;34426;52.180;4.462;2023-07-13T03:33:01;20.75;;;4.50;;
48629;SDS011;34426;52.180;4.462;2023-07-13T03:35:26;23.55;;;3.92;;
48629;SDS011;34426;52.180;4.462;2023-07-13T03:37:53;19.70;;;3.38;;
48629;SDS011;34426;52.180;4.462;2023-07-13T03:40:19;26.55;;;4.47;;
48629;SDS011;34426;52.180;4.462;2023-07-13T03:42:50;24.17;;;4.07;;
48629;SDS011;34426;52.180;4.462;2023-07-13T03:45:16;23.40;;;3.90;;
48629;SDS011;34426;52.180;4.462;2023-07-13T03:47:42;20.30;;;3.78;;
48629;SDS011;34426;52.180;4.462;2023-07-13T03:50:07;22.02;;;4.25;;
48629;SDS011;34426;52.180;4.462;2023-07-13T03:52:36;24.65;;;4.50;;
48629;SDS011;34426;52.180;4.462;2023-07-13T03:55:04;18.20;;;4.10;;
48629;SDS011;34426;52.180;4.462;2023-07-13T03:57:30;20.05;;;3.67;;
48629;SDS011;34426;52.180;4.462;2023-07-13T03:59:55;23.55;;;4.30;;
48629;SDS011;34426;52.180;4.462;2023-07-13T04:02:21;12.48;;;3.50;;
48629;SDS011;34426;52.180;4.462;2023-07-13T04:04:47;19.58;;;4.03;;
48629;SDS011;34426;52.180;4.462;2023-07-13T04:07:12;20.58;;;3.53;;
48629;SDS011;34426;52.180;4.462;2023-07-13T04:09:38;23.70;;;3.95;;
48629;SDS011;34426;52.180;4.462;2023-07-13T04:12:06;19.70;;;3.25;;
48629;SDS011;34426;52.180;4.462;2023-07-13T04:14:32;19.92;;;3.83;;
48629;SDS011;34426;52.180;4.462;2023-07-13T04:17:00;21.60;;;3.97;;
48629;SDS011;34426;52.180;4.462;2023-07-13T04:19:26;17.58;;;3.40;;
48629;SDS011;34426;52.180;4.462;2023-07-13T04:21:52;24.70;;;4.00;;
48629;SDS011;34426;52.180;4.462;2023-07-13T04:24:17;17.08;;;3.95;;
48629;SDS011;34426;52.180;4.462;2023-07-13T04:26:46;23.05;;;5.03;;
48629;SDS011;34426;52.180;4.462;2023-07-13T04:29:13;20.98;;;4.30;;
48629;SDS011;34426;52.180;4.462;2023-07-13T04:31:39;21.20;;;4.13;;
48629;SDS011;34426;52.180;4.462;2023-07-13T04:34:04;25.30;;;4.75;;
48629;SDS011;34426;52.180;4.462;2023-07-13T04:36:30;22.27;;;3.53;;
48629;SDS011;34426;52.180;4.462;2023-07-13T04:38:56;18.63;;;3.80;;
48629;SDS011;34426;52.180;4.462;2023-07-13T04:41:21;12.70;;;2.80;;
48629;SDS011;34426;52.180;4.462;2023-07-13T04:43:47;22.27;;;4.00;;
48629;SDS011;34426;52.180;4.462;2023-07-13T04:46:15;17.75;;;3.63;;
48629;SDS011;34426;52.180;4.462;2023-07-13T04:48:42;15.35;;;4.07;;
48629;SDS011;34426;52.180;4.462;2023-07-13T04:51:10;28.05;;;3.70;;
48629;SDS011;34426;52.180;4.462;2023-07-13T04:53:36;14.13;;;2.88;;
48629;SDS011;34426;52.180;4.462;2023-07-13T04:56:01;17.50;;;3.47;;
48629;SDS011;34426;52.180;4.462;2023-07-13T04:58:28;19.15;;;3.35;;
48629;SDS011;34426;52.180;4.462;2023-07-13T05:01:01;20.00;;;3.83;;
48629;SDS011;34426;52.180;4.462;2023-07-13T05:03:31;18.35;;;4.10;;
48629;SDS011;34426;52.180;4.462;2023-07-13T05:05:58;13.10;;;3.30;;
48629;SDS011;34426;52.180;4.462;2023-07-13T05:08:25;25.85;;;3.83;;
48629;SDS011;34426;52.180;4.462;2023-07-13T05:10:51;17.30;;;3.20;;
48629;SDS011;34426;52.180;4.462;2023-07-13T05:13:16;14.23;;;3.60;;
48629;SDS011;34426;52.180;4.462;2023-07-13T05:15:43;19.10;;;3.65;;
48629;SDS011;34426;52.180;4.462;2023-07-13T05:18:09;14.70;;;3.67;;
48629;SDS011;34426;52.180;4.462;2023-07-13T05:20:36;17.92;;;3.80;;
48629;SDS011;34426;52.180;4.462;2023-07-13T05:23:02;15.23;;;3.05;;
48629;SDS011;34426;52.180;4.462;2023-07-13T05:25:27;19.92;;;3.40;;
48629;SDS011;34426;52.180;4.462;2023-07-13T05:27:54;18.40;;;3.20;;
48629;SDS011;34426;52.180;4.462;2023-07-13T05:30:20;15.07;;;3.15;;
48629;SDS011;34426;52.180;4.462;2023-07-13T05:32:46;18.33;;;3.63;;
48629;SDS011;34426;52.180;4.462;2023-07-13T05:35:11;12.20;;;2.63;;
48629;SDS011;34426;52.180;4.462;2023-07-13T05:37:38;14.85;;;3.17;;
48629;SDS011;34426;52.180;4.462;2023-07-13T05:40:05;14.63;;;3.03;;
48629;SDS011;34426;52.180;4.462;2023-07-13T05:42:31;11.77;;;2.97;;
48629;SDS011;34426;52.180;4.462;2023-07-13T05:44:57;13.65;;;3.00;;
48629;SDS011;34426;52.180;4.462;2023-07-13T05:47:23;14.20;;;3.22;;
48629;SDS011;34426;52.180;4.462;2023-07-13T05:49:49;15.75;;;3.38;;
48629;SDS011;34426;52.180;4.462;2023-07-13T05:52:17;16.98;;;3.45;;
48629;SDS011;34426;52.180;4.462;2023-07-13T05:54:44;10.27;;;2.70;;
48629;SDS011;34426;52.180;4.462;2023-07-13T05:57:15;11.85;;;3.10;;
48629;SDS011;34426;52.180;4.462;2023-07-13T05:59:43;18.52;;;3.67;;
48629;SDS011;34426;52.180;4.462;2023-07-13T06:02:09;19.25;;;3.50;;
48629;SDS011;34426;52.180;4.462;2023-07-13T06:04:35;18.55;;;3.67;;
48629;SDS011;34426;52.180;4.462;2023-07-13T06:07:01;14.95;;;3.20;;
48629;SDS011;34426;52.180;4.462;2023-07-13T06:09:26;20.42;;;3.47;;
48629;SDS011;34426;52.180;4.462;2023-07-13T06:11:53;12.57;;;3.45;;
48629;SDS011;34426;52.180;4.462;2023-07-13T06:14:19;12.23;;;3.08;;
48629;SDS011;34426;52.180;4.462;2023-07-13T06:16:44;14.77;;;3.53;;
48629;SDS011;34426;52.180;4.462;2023-07-13T06:19:10;19.85;;;3.85;;
48629;SDS011;34426;52.180;4.462;2023-07-13T06:21:36;11.15;;;2.63;;
48629;SDS011;34426;52.180;4.462;2023-07-13T06:24:01;13.98;;;4.03;;
48629;SDS011;34426;52.180;4.462;2023-07-13T06:26:27;15.50;;;3.88;;
48629;SDS011;34426;52.180;4.462;2023-07-13T06:28:54;12.60;;;3.40;;
48629;SDS011;34426;52.180;4.462;2023-07-13T06:31:19;12.50;;;2.75;;
48629;SDS011;34426;52.180;4.462;2023-07-13T06:33:45;9.50;;;3.30;;
48629;SDS011;34426;52.180;4.462;2023-07-13T06:36:11;16.42;;;3.38;;
48629;SDS011;34426;52.180;4.462;2023-07-13T06:38:36;13.68;;;2.83;;
48629;SDS011;34426;52.180;4.462;2023-07-13T06:41:02;11.95;;;2.90;;
48629;SDS011;34426;52.180;4.462;2023-07-13T06:43:28;16.15;;;3.67;;
48629;SDS011;34426;52.180;4.462;2023-07-13T06:45:55;12.77;;;2.58;;
48629;SDS011;34426;52.180;4.462;2023-07-13T06:48:21;11.23;;;2.33;;
48629;SDS011;34426;52.180;4.462;2023-07-13T06:50:48;8.23;;;2.50;;
48629;SDS011;34426;52.180;4.462;2023-07-13T06:53:14;17.10;;;3.15;;
48629;SDS011;34426;52.180;4.462;2023-07-13T06:55:40;21.92;;;3.00;;
48629;SDS011;34426;52.180;4.462;2023-07-13T06:58:09;19.15;;;3.28;;
48629;SDS011;34426;52.180;4.462;2023-07-13T07:00:34;12.35;;;2.53;;
48629;SDS011;34426;52.180;4.462;2023-07-13T07:03:01;15.07;;;3.17;;
48629;SDS011;34426;52.180;4.462;2023-07-13T07:05:28;14.02;;;3.13;;
48629;SDS011;34426;52.180;4.462;2023-07-13T07:07:54;13.55;;;3.03;;
48629;SDS011;34426;52.180;4.462;2023-07-13T07:10:20;9.38;;;2.15;;
48629;SDS011;34426;52.180;4.462;2023-07-13T07:12:46;12.40;;;3.30;;
48629;SDS011;34426;52.180;4.462;2023-07-13T07:15:12;9.93;;;2.63;;
48629;SDS011;34426;52.180;4.462;2023-07-13T07:17:38;11.38;;;3.17;;
48629;SDS011;34426;52.180;4.462;2023-07-13T07:20:06;14.25;;;2.88;;
48629;SDS011;34426;52.180;4.462;2023-07-13T07:22:32;10.27;;;2.92;;
48629;SDS011;34426;52.180;4.462;2023-07-13T07:24:58;15.18;;;2.80;;
48629;SDS011;34426;52.180;4.462;2023-07-13T07:27:24;12.45;;;3.42;;
48629;SDS011;34426;52.180;4.462;2023-07-13T07:29:49;10.40;;;2.13;;
48629;SDS011;34426;52.180;4.462;2023-07-13T07:32:15;8.85;;;2.00;;
48629;SDS011;34426;52.180;4.462;2023-07-13T07:34:41;12.50;;;2.40;;
48629;SDS011;34426;52.180;4.462;2023-07-13T07:37:09;14.70;;;2.55;;
48629;SDS011;34426;52.180;4.462;2023-07-13T07:39:36;12.95;;;2.65;;
48629;SDS011;34426;52.180;4.462;2023-07-13T07:42:02;12.50;;;2.60;;
48629;SDS011;34426;52.180;4.462;2023-07-13T07:44:27;19.42;;;3.78;;
48629;SDS011;34426;52.180;4.462;2023-07-13T07:46:53;12.30;;;2.97;;
48629;SDS011;34426;52.180;4.462;2023-07-13T07:49:19;19.50;;;3.30;;
48629;SDS011;34426;52.180;4.462;2023-07-13T07:51:44;13.23;;;2.67;;
48629;SDS011;34426;52.180;4.462;2023-07-13T07:54:11;16.63;;;2.85;;
48629;SDS011;34426;52.180;4.462;2023-07-13T07:56:37;12.45;;;3.20;;
48629;SDS011;34426;52.180;4.462;2023-07-13T07:59:02;10.02;;;2.58;;
48629;SDS011;34426;52.180;4.462;2023-07-13T08:01:28;10.23;;;2.65;;
48629;SDS011;34426;52.180;4.462;2023-07-13T08:03:54;15.45;;;2.92;;
48629;SDS011;34426;52.180;4.462;2023-07-13T08:06:19;13.45;;;3.05;;
48629;SDS011;34426;52.180;4.462;2023-07-13T08:08:45;11.45;;;3.13;;
48629;SDS011;34426;52.180;4.462;2023-07-13T08:11:12;16.60;;;2.90;;
48629;SDS011;34426;52.180;4.462;2023-07-13T08:13:38;14.38;;;3.28;;
48629;SDS011;34426;52.180;4.462;2023-07-13T08:16:04;15.90;;;3.33;;
48629;SDS011;34426;52.180;4.462;2023-07-13T08:18:30;23.02;;;3.58;;
48629;SDS011;34426;52.180;4.462;2023-07-13T08:20:56;17.85;;;3.33;;
48629;SDS011;34426;52.180;4.462;2023-07-13T08:23:21;16.58;;;3.60;;
48629;SDS011;34426;52.180;4.462;2023-07-13T08:25:50;12.45;;;2.80;;
48629;SDS011;34426;52.180;4.462;2023-07-13T08:28:18;12.90;;;3.10;;
48629;SDS011;34426;52.180;4.462;2023-07-13T08:30:44;10.07;;;2.92;;
48629;SDS011;34426;52.180;4.462;2023-07-13T08:33:09;16.33;;;3.20;;
48629;SDS011;34426;52.180;4.462;2023-07-13T08:35:35;20.65;;;3.63;;
48629;SDS011;34426;52.180;4.462;2023-07-13T08:38:00;11.80;;;3.25;;
48629;SDS011;34426;52.180;4.462;2023-07-13T08:40:27;15.90;;;4.15;;
48629;SDS011;34426;52.180;4.462;2023-07-13T08:42:53;19.48;;;3.38;;
48629;SDS011;34426;52.180;4.462;2023-07-13T08:45:22;16.50;;;4.00;;
48629;SDS011;34426;52.180;4.462;2023-07-13T08:47:52;14.23;;;3.10;;
48629;SDS011;34426;52.180;4.462;2023-07-13T08:50:23;16.00;;;3.40;;
48629;SDS011;34426;52.180;4.462;2023-07-13T08:52:53;19.30;;;2.95;;
48629;SDS011;34426;52.180;4.462;2023-07-13T08:55:22;18.20;;;2.83;;
48629;SDS011;34426;52.180;4.462;2023-07-13T08:57:53;20.50;;;3.25;;
48629;SDS011;34426;52.180;4.462;2023-07-13T09:00:27;9.82;;;2.67;;
48629;SDS011;34426;52.180;4.462;2023-07-13T09:03:02;13.50;;;2.85;;
48629;SDS011;34426;52.180;4.462;2023-07-13T09:05:31;15.77;;;3.03;;
48629;SDS011;34426;52.180;4.462;2023-07-13T09:08:19;20.48;;;3.88;;
48629;SDS011;34426;52.180;4.462;2023-07-13T09:10:59;16.02;;;2.95;;
48629;SDS011;34426;52.180;4.462;2023-07-13T09:13:36;15.13;;;2.90;;
48629;SDS011;34426;52.180;4.462;2023-07-13T09:16:09;18.20;;;3.33;;
48629;SDS011;34426;52.180;4.462;2023-07-13T09:18:37;12.80;;;3.50;;
48629;SDS011;34426;52.180;4.462;2023-07-13T09:21:07;11.38;;;2.95;;
48629;SDS011;34426;52.180;4.462;2023-07-13T09:23:37;22.73;;;4.05;;
48629;SDS011;34426;52.180;4.462;2023-07-13T09:26:04;11.55;;;3.67;;
48629;SDS011;34426;52.180;4.462;2023-07-13T09:28:37;13.63;;;3.92;;
48629;SDS011;34426;52.180;4.462;2023-07-13T09:31:06;15.43;;;3.53;;
48629;SDS011;34426;52.180;4.462;2023-07-13T09:33:37;14.82;;;2.85;;
48629;SDS011;34426;52.180;4.462;2023-07-13T09:36:05;14.70;;;3.53;;
48629;SDS011;34426;52.180;4.462;2023-07-13T09:38:43;13.15;;;3.45;;
48629;SDS011;34426;52.180;4.462;2023-07-13T09:41:14;21.17;;;5.22;;
48629;SDS011;34426;52.180;4.462;2023-07-13T09:46:44;13.88;;;3.30;;
48629;SDS011;34426;52.180;4.462;2023-07-13T09:49:13;13.13;;;2.90;;
48629;SDS011;34426;52.180;4.462;2023-07-13T09:51:40;16.92;;;3.33;;
48629;SDS011;34426;52.180;4.462;2023-07-13T09:54:13;13.27;;;3.15;;
48629;SDS011;34426;52.180;4.462;2023-07-13T09:56:44;13.00;;;3.05;;
48629;SDS011;34426;52.180;4.462;2023-07-13T09:59:17;19.48;;;3.53;;
48629;SDS011;34426;52.180;4.462;2023-07-13T10:01:44;21.55;;;3.90;;
48629;SDS011;34426;52.180;4.462;2023-07-13T10:04:10;17.17;;;3.40;;
48629;SDS011;34426;52.180;4.462;2023-07-13T10:06:38;11.82;;;3.58;;
48629;SDS011;34426;52.180;4.462;2023-07-13T10:09:06;22.65;;;4.40;;
48629;SDS011;34426;52.180;4.462;2023-07-13T10:11:34;14.25;;;3.00;;
48629;SDS011;34426;52.180;4.462;2023-07-13T10:14:01;12.65;;;3.42;;
48629;SDS011;34426;52.180;4.462;2023-07-13T10:16:28;17.55;;;3.10;;
48629;SDS011;34426;52.180;4.462;2023-07-13T10:18:57;9.05;;;2.95;;
48629;SDS011;34426;52.180;4.462;2023-07-13T10:21:26;13.23;;;2.80;;
48629;SDS011;34426;52.180;4.462;2023-07-13T10:23:55;10.93;;;2.88;;
48629;SDS011;34426;52.180;4.462;2023-07-13T10:26:26;16.23;;;3.25;;
48629;SDS011;34426;52.180;4.462;2023-07-13T10:28:59;19.35;;;3.83;;
48629;SDS011;34426;52.180;4.462;2023-07-13T10:31:29;15.25;;;3.03;;
48629;SDS011;34426;52.180;4.462;2023-07-13T10:33:56;10.52;;;2.90;;
48629;SDS011;34426;52.180;4.462;2023-07-13T10:36:30;13.02;;;3.40;;
48629;SDS011;34426;52.180;4.462;2023-07-13T10:39:02;18.52;;;3.00;;
48629;SDS011;34426;52.180;4.462;2023-07-13T10:41:30;15.35;;;3.78;;
48629;SDS011;34426;52.180;4.462;2023-07-13T10:43:59;10.80;;;3.47;;
48629;SDS011;34426;52.180;4.462;2023-07-13T10:46:26;12.23;;;3.13;;
48629;SDS011;34426;52.180;4.462;2023-07-13T10:48:54;20.33;;;3.97;;
48629;SDS011;34426;52.180;4.462;2023-07-13T10:51:23;9.70;;;2.80;;
48629;SDS011;34426;52.180;4.462;2023-07-13T10:56:39;14.05;;;3.08;;
48629;SDS011;34426;52.180;4.462;2023-07-13T10:59:09;15.23;;;3.50;;
48629;SDS011;34426;52.180;4.462;2023-07-13T11:01:40;17.03;;;3.10;;
48629;SDS011;34426;52.180;4.462;2023-07-13T11:04:13;10.35;;;3.40;;
48629;SDS011;34426;52.180;4.462;2023-07-13T11:06:40;15.02;;;3.10;;
48629;SDS011;34426;52.180;4.462;2023-07-13T11:12:26;10.95;;;3.55;;
48629;SDS011;34426;52.180;4.462;2023-07-13T11:15:10;17.27;;;4.07;;
48629;SDS011;34426;52.180;4.462;2023-07-13T11:17:38;13.90;;;3.40;;
48629;SDS011;34426;52.180;4.462;2023-07-13T11:20:23;16.88;;;3.47;;
48629;SDS011;34426;52.180;4.462;2023-07-13T11:23:07;16.90;;;3.78;;
48629;SDS011;34426;52.180;4.462;2023-07-13T11:25:45;20.60;;;3.50;;
48629;SDS011;34426;52.180;4.462;2023-07-13T11:28:15;17.65;;;3.20;;
48629;SDS011;34426;52.180;4.462;2023-07-13T11:30:43;14.07;;;4.25;;
48629;SDS011;34426;52.180;4.462;2023-07-13T11:33:13;13.48;;;3.33;;
48629;SDS011;34426;52.180;4.462;2023-07-13T11:35:43;14.15;;;3.58;;
48629;SDS011;34426;52.180;4.462;2023-07-13T11:38:17;13.50;;;3.47;;
48629;SDS011;34426;52.180;4.462;2023-07-13T11:40:47;14.13;;;3.25;;
48629;SDS011;34426;52.180;4.462;2023-07-13T11:43:15;17.60;;;3.72;;
48629;SDS011;34426;52.180;4.462;2023-07-13T11:45:42;15.10;;;3.72;;
48629;SDS011;34426;52.180;4.462;2023-07-13T11:48:18;14.55;;;3.58;;
48629;SDS011;34426;52.180;4.462;2023-07-13T11:50:49;12.48;;;3.53;;
48629;SDS011;34426;52.180;4.462;2023-07-13T11:53:15;19.85;;;3.58;;
48629;SDS011;34426;52.180;4.462;2023-07-13T11:55:42;19.23;;;3.30;;
48629;SDS011;34426;52.180;4.462;2023-07-13T11:58:14;15.02;;;3.35;;
48629;SDS011;34426;52.180;4.462;2023-07-13T12:00:44;18.92;;;3.53;;
48629;SDS011;34426;52.180;4.462;2023-07-13T12:03:10;9.88;;;3.15;;
48629;SDS011;34426;52.180;4.462;2023-07-13T12:05:38;14.10;;;3.97;;
48629;SDS011;34426;52.180;4.462;2023-07-13T12:08:20;12.75;;;3.10;;
48629;SDS011;34426;52.180;4.462;2023-07-13T12:10:47;9.65;;;3.22;;
48629;SDS011;34426;52.180;4.462;2023-07-13T12:13:13;17.27;;;3.92;;
48629;SDS011;34426;52.180;4.462;2023-07-13T12:15:39;12.02;;;3.47;;
48629;SDS011;34426;52.180;4.462;2023-07-13T12:18:11;10.70;;;3.45;;
48629;SDS011;34426;52.180;4.462;2023-07-13T12:20:38;15.00;;;3.42;;
48629;SDS011;34426;52.180;4.462;2023-07-13T12:23:04;10.98;;;3.00;;
48629;SDS011;34426;52.180;4.462;2023-07-13T12:25:31;16.00;;;3.22;;
48629;SDS011;34426;52.180;4.462;2023-07-13T12:27:58;13.23;;;3.67;;
48629;SDS011;34426;52.180;4.462;2023-07-13T12:30:26;13.93;;;2.92;;
48629;SDS011;34426;52.180;4.462;2023-07-13T12:32:57;11.20;;;2.83;;
48629;SDS011;34426;52.180;4.462;2023-07-13T12:35:28;8.52;;;2.78;;
48629;SDS011;34426;52.180;4.462;2023-07-13T12:37:56;9.40;;;2.75;;
48629;SDS011;34426;52.180;4.462;2023-07-13T12:40:24;11.15;;;2.70;;
48629;SDS011;34426;52.180;4.462;2023-07-13T12:42:52;10.68;;;2.88;;
48629;SDS011;34426;52.180;4.462;2023-07-13T12:45:20;12.32;;;3.42;;
48629;SDS011;34426;52.180;4.462;2023-07-13T12:47:48;9.57;;;2.67;;
48629;SDS011;34426;52.180;4.462;2023-07-13T12:52:43;12.88;;;2.88;;
48629;SDS011;34426;52.180;4.462;2023-07-13T12:55:11;20.35;;;3.28;;
48629;SDS011;34426;52.180;4.462;2023-07-13T12:57:39;9.15;;;2.60;;
48629;SDS011;34426;52.180;4.462;2023-07-13T13:00:10;12.23;;;3.08;;
48629;SDS011;34426;52.180;4.462;2023-07-13T13:02:48;11.57;;;2.90;;
48629;SDS011;34426;52.180;4.462;2023-07-13T13:05:16;7.30;;;2.25;;
48629;SDS011;34426;52.180;4.462;2023-07-13T13:07:42;8.60;;;2.45;;
48629;SDS011;34426;52.180;4.462;2023-07-13T13:10:11;14.82;;;2.90;;
48629;SDS011;34426;52.180;4.462;2023-07-13T13:12:37;11.02;;;2.80;;
48629;SDS011;34426;52.180;4.462;2023-07-13T13:15:03;9.55;;;2.28;;
48629;SDS011;34426;52.180;4.462;2023-07-13T13:17:30;8.90;;;2.75;;
48629;SDS011;34426;52.180;4.462;2023-07-13T13:19:56;12.00;;;2.30;;
48629;SDS011;34426;52.180;4.462;2023-07-13T13:22:22;11.75;;;2.60;;
48629;SDS011;34426;52.180;4.462;2023-07-13T13:24:47;10.98;;;3.13;;
48629;SDS011;34426;52.180;4.462;2023-07-13T13:27:16;14.27;;;3.20;;
48629;SDS011;34426;52.180;4.462;2023-07-13T13:29:44;12.75;;;3.10;;
48629;SDS011;34426;52.180;4.462;2023-07-13T13:32:11;9.15;;;2.78;;
48629;SDS011;34426;52.180;4.462;2023-07-13T13:34:39;10.25;;;2.42;;
48629;SDS011;34426;52.180;4.462;2023-07-13T13:37:09;11.82;;;2.60;;
48629;SDS011;34426;52.180;4.462;2023-07-13T13:39:43;10.98;;;2.67;;
48629;SDS011;34426;52.180;4.462;2023-07-13T13:42:10;15.05;;;2.72;;
48629;SDS011;34426;52.180;4.462;2023-07-13T13:44:35;9.93;;;3.17;;
48629;SDS011;34426;52.180;4.462;2023-07-13T13:47:01;6.97;;;2.00;;
48629;SDS011;34426;52.180;4.462;2023-07-13T13:49:27;9.93;;;3.05;;
48629;SDS011;34426;52.180;4.462;2023-07-13T13:51:56;6.78;;;2.10;;
48629;SDS011;34426;52.180;4.462;2023-07-13T13:54:23;7.68;;;2.53;;
48629;SDS011;34426;52.180;4.462;2023-07-13T13:56:49;12.98;;;2.85;;
48629;SDS011;34426;52.180;4.462;2023-07-13T13:59:16;9.40;;;2.15;;
48629;SDS011;34426;52.180;4.462;2023-07-13T14:01:43;8.38;;;2.03;;
48629;SDS011;34426;52.180;4.462;2023-07-13T14:04:10;6.45;;;2.17;;
48629;SDS011;34426;52.180;4.462;2023-07-13T14:06:40;6.03;;;2.08;;
48629;SDS011;34426;52.180;4.462;2023-07-13T14:09:08;7.05;;;2.22;;
48629;SDS011;34426;52.180;4.462;2023-07-13T14:11:35;8.63;;;2.47;;
48629;SDS011;34426;52.180;4.462;2023-07-13T14:14:01;10.25;;;2.30;;
48629;SDS011;34426;52.180;4.462;2023-07-13T14:16:28;5.43;;;1.90;;
48629;SDS011;34426;52.180;4.462;2023-07-13T14:18:55;6.63;;;2.58;;
48629;SDS011;34426;52.180;4.462;2023-07-13T14:21:21;8.88;;;2.10;;
48629;SDS011;34426;52.180;4.462;2023-07-13T14:23:47;9.93;;;2.38;;
48629;SDS011;34426;52.180;4.462;2023-07-13T14:26:16;10.07;;;2.67;;
48629;SDS011;34426;52.180;4.462;2023-07-13T14:28:44;7.78;;;2.10;;
48629;SDS011;34426;52.180;4.462;2023-07-13T14:31:12;8.70;;;2.42;;
48629;SDS011;34426;52.180;4.462;2023-07-13T14:33:39;6.88;;;2.47;;
48629;SDS011;34426;52.180;4.462;2023-07-13T14:36:05;7.40;;;2.17;;
48629;SDS011;34426;52.180;4.462;2023-07-13T14:38:46;5.97;;;2.00;;
48629;SDS011;34426;52.180;4.462;2023-07-13T14:41:11;5.53;;;2.25;;
48629;SDS011;34426;52.180;4.462;2023-07-13T14:43:53;7.35;;;2.42;;
48629;SDS011;34426;52.180;4.462;2023-07-13T14:46:22;7.47;;;2.00;;
48629;SDS011;34426;52.180;4.462;2023-07-13T14:48:54;8.52;;;2.15;;
48629;SDS011;34426;52.180;4.462;2023-07-13T14:51:25;7.78;;;2.30;;